createdAt,value
2022-12-18T00:01:00.009Z,1021.91
2022-12-18T00:02:00.076Z,1021.92
2022-12-18T00:03:00.088Z,1021.91
2022-12-18T00:04:00.100Z,1021.89
2022-12-18T00:04:59.977Z,1021.85
2022-12-18T00:05:59.940Z,1021.81
2022-12-18T00:06:59.949Z,1021.79
2022-12-18T00:07:59.921Z,1021.76
2022-12-18T00:08:59.951Z,1021.74
2022-12-18T00:09:59.907Z,1021.74
2022-12-18T00:11:00.639Z,1021.75
2022-12-18T00:11:59.879Z,1021.77
2022-12-18T00:13:02.559Z,1021.75
2022-12-18T00:13:59.887Z,1021.78
2022-12-18T00:14:59.875Z,1021.76
2022-12-18T00:15:59.876Z,1021.76
2022-12-18T00:16:59.847Z,1021.74
2022-12-18T00:17:59.829Z,1021.73
2022-12-18T00:18:59.850Z,1021.72
2022-12-18T00:19:59.813Z,1021.72
2022-12-18T00:20:59.841Z,1021.74
2022-12-18T00:21:59.777Z,1021.75
2022-12-18T00:22:59.790Z,1021.76
2022-12-18T00:23:59.776Z,1021.75
2022-12-18T00:24:59.818Z,1021.78
2022-12-18T00:25:59.742Z,1021.79
2022-12-18T00:26:59.754Z,1021.83
2022-12-18T00:27:59.722Z,1021.84
2022-12-18T00:28:59.752Z,1021.86
2022-12-18T00:29:59.704Z,1021.87
2022-12-18T00:30:59.730Z,1021.88
2022-12-18T00:31:59.726Z,1021.86
2022-12-18T00:32:59.714Z,1021.87
2022-12-18T00:33:59.663Z,1021.85
2022-12-18T00:34:59.682Z,1021.86
2022-12-18T00:35:59.664Z,1021.84
2022-12-18T00:36:59.659Z,1021.85
2022-12-18T00:37:59.626Z,1021.84
2022-12-18T00:38:59.671Z,1021.86
2022-12-18T00:39:59.609Z,1021.87
2022-12-18T00:40:59.625Z,1021.87
2022-12-18T00:41:59.603Z,1021.89
2022-12-18T00:42:59.619Z,1021.90
2022-12-18T00:43:59.587Z,1021.89
2022-12-18T00:44:59.588Z,1021.88
2022-12-18T00:45:59.581Z,1021.85
2022-12-18T00:46:59.598Z,1021.83
2022-12-18T00:47:59.552Z,1021.81
2022-12-18T00:48:59.528Z,1021.80
2022-12-18T00:49:59.554Z,1021.77
2022-12-18T00:50:59.514Z,1021.78
2022-12-18T00:51:59.548Z,1021.77
2022-12-18T00:52:59.495Z,1021.75
2022-12-18T00:53:59.506Z,1021.76
2022-12-18T00:55:04.497Z,1021.75
2022-12-18T00:55:59.491Z,1021.75
2022-12-18T00:56:59.467Z,1021.75
2022-12-18T00:57:59.472Z,1021.72
2022-12-18T00:58:59.431Z,1021.72
2022-12-18T00:59:59.450Z,1021.72
2022-12-18T01:00:59.504Z,1021.71
2022-12-18T01:01:59.562Z,1021.72
2022-12-18T01:02:59.475Z,1021.72
2022-12-18T01:03:59.410Z,1021.69
2022-12-18T01:04:59.384Z,1021.67
2022-12-18T01:05:59.399Z,1021.67
2022-12-18T01:06:59.353Z,1021.67
2022-12-18T01:07:59.378Z,1021.67
2022-12-18T01:08:59.361Z,1021.71
2022-12-18T01:09:59.362Z,1021.72
2022-12-18T01:10:59.346Z,1021.75
2022-12-18T01:11:59.344Z,1021.79
2022-12-18T01:12:59.300Z,1021.82
2022-12-18T01:13:59.335Z,1021.86
2022-12-18T01:14:59.282Z,1021.85
2022-12-18T01:15:59.347Z,1021.88
2022-12-18T01:16:59.273Z,1021.88
2022-12-18T01:17:59.282Z,1021.89
2022-12-18T01:18:59.248Z,1021.91
2022-12-18T01:19:59.275Z,1021.90
2022-12-18T01:20:59.224Z,1021.92
2022-12-18T01:21:59.235Z,1021.93
2022-12-18T01:22:59.220Z,1021.93
2022-12-18T01:23:59.220Z,1021.91
2022-12-18T01:24:59.203Z,1021.88
2022-12-18T01:25:59.211Z,1021.85
2022-12-18T01:26:59.182Z,1021.83
2022-12-18T01:27:59.191Z,1021.82
2022-12-18T01:28:59.174Z,1021.79
2022-12-18T01:29:59.165Z,1021.80
2022-12-18T01:30:59.142Z,1021.82
2022-12-18T01:31:59.222Z,1021.81
2022-12-18T01:32:59.125Z,1021.83
2022-12-18T01:33:59.125Z,1021.85
2022-12-18T01:34:59.092Z,1021.89
2022-12-18T01:35:59.156Z,1021.91
2022-12-18T01:36:59.106Z,1021.94
2022-12-18T01:37:59.098Z,1021.96
2022-12-18T01:38:59.061Z,1021.95
2022-12-18T01:39:59.073Z,1021.94
2022-12-18T01:40:59.061Z,1021.93
2022-12-18T01:41:59.051Z,1021.92
2022-12-18T01:42:59.044Z,1021.92
2022-12-18T01:43:59.035Z,1021.91
2022-12-18T01:44:59.051Z,1021.88
2022-12-18T01:45:59.051Z,1021.84
2022-12-18T01:46:58.998Z,1021.83
2022-12-18T01:47:59.000Z,1021.82
2022-12-18T01:48:58.961Z,1021.80
2022-12-18T01:49:59.008Z,1021.79
2022-12-18T01:50:58.963Z,1021.79
2022-12-18T01:51:58.976Z,1021.77
2022-12-18T01:52:58.942Z,1021.78
2022-12-18T01:53:58.949Z,1021.76
2022-12-18T01:54:58.907Z,1021.74
2022-12-18T01:55:58.927Z,1021.73
2022-12-18T01:56:58.892Z,1021.70
2022-12-18T01:57:58.914Z,1021.69
2022-12-18T01:58:58.887Z,1021.66
2022-12-18T01:59:58.888Z,1021.66
2022-12-18T02:00:58.893Z,1021.65
2022-12-18T02:01:59.038Z,1021.63
2022-12-18T02:02:58.990Z,1021.63
2022-12-18T02:03:58.858Z,1021.64
2022-12-18T02:04:58.823Z,1021.67
2022-12-18T02:05:58.838Z,1021.66
2022-12-18T02:06:58.803Z,1021.69
2022-12-18T02:07:58.814Z,1021.72
2022-12-18T02:08:58.785Z,1021.76
2022-12-18T02:09:58.791Z,1021.80
2022-12-18T02:10:58.759Z,1021.83
2022-12-18T02:11:58.772Z,1021.87
2022-12-18T02:12:58.741Z,1021.90
2022-12-18T02:13:58.774Z,1021.90
2022-12-18T02:14:58.724Z,1021.90
2022-12-18T02:15:58.733Z,1021.89
2022-12-18T02:16:58.733Z,1021.88
2022-12-18T02:17:58.717Z,1021.83
2022-12-18T02:18:58.705Z,1021.79
2022-12-18T02:19:58.713Z,1021.74
2022-12-18T02:20:58.660Z,1021.72
2022-12-18T02:21:58.685Z,1021.69
2022-12-18T02:22:58.646Z,1021.70
2022-12-18T02:23:58.659Z,1021.68
2022-12-18T02:24:58.677Z,1021.68
2022-12-18T02:25:58.674Z,1021.67
2022-12-18T02:26:59.171Z,1021.65
2022-12-18T02:27:58.626Z,1021.60
2022-12-18T02:28:58.607Z,1021.58
2022-12-18T02:29:59.166Z,1021.56
2022-12-18T02:30:58.636Z,1021.55
2022-12-18T02:31:58.585Z,1021.54
2022-12-18T02:32:58.587Z,1021.55
2022-12-18T02:33:58.566Z,1021.56
2022-12-18T02:34:58.535Z,1021.56
2022-12-18T02:35:58.535Z,1021.55
2022-12-18T02:36:58.515Z,1021.57
2022-12-18T02:37:58.544Z,1021.58
2022-12-18T02:38:58.506Z,1021.61
2022-12-18T02:39:58.613Z,1021.61
2022-12-18T02:40:58.497Z,1021.60
2022-12-18T02:41:58.511Z,1021.58
2022-12-18T02:42:58.463Z,1021.56
2022-12-18T02:43:58.491Z,1021.52
2022-12-18T02:44:58.450Z,1021.51
2022-12-18T02:45:58.634Z,1021.48
2022-12-18T02:46:58.427Z,1021.46
2022-12-18T02:47:58.462Z,1021.46
2022-12-18T02:48:58.409Z,1021.45
2022-12-18T02:49:58.416Z,1021.46
2022-12-18T02:50:58.383Z,1021.51
2022-12-18T02:51:58.446Z,1021.52
2022-12-18T02:52:58.371Z,1021.52
2022-12-18T02:53:58.390Z,1021.54
2022-12-18T02:54:58.761Z,1021.56
2022-12-18T02:55:58.389Z,1021.57
2022-12-18T02:56:58.347Z,1021.60
2022-12-18T02:57:58.345Z,1021.59
2022-12-18T02:58:58.324Z,1021.60
2022-12-18T02:59:58.332Z,1021.60
2022-12-18T03:00:58.339Z,1021.58
2022-12-18T03:01:58.475Z,1021.58
2022-12-18T03:02:58.536Z,1021.59
2022-12-18T03:03:58.284Z,1021.59
2022-12-18T03:04:58.269Z,1021.61
2022-12-18T03:05:58.261Z,1021.64
2022-12-18T03:06:58.235Z,1021.61
2022-12-18T03:07:58.290Z,1021.60
2022-12-18T03:08:58.213Z,1021.58
2022-12-18T03:09:58.234Z,1021.58
2022-12-18T03:10:58.212Z,1021.56
2022-12-18T03:11:58.212Z,1021.58
2022-12-18T03:12:58.177Z,1021.57
2022-12-18T03:13:58.206Z,1021.59
2022-12-18T03:14:58.157Z,1021.57
2022-12-18T03:15:58.179Z,1021.58
2022-12-18T03:16:58.173Z,1021.57
2022-12-18T03:17:58.162Z,1021.59
2022-12-18T03:18:58.132Z,1021.57
2022-12-18T03:19:58.135Z,1021.59
2022-12-18T03:20:58.121Z,1021.60
2022-12-18T03:21:58.134Z,1021.58
2022-12-18T03:22:58.114Z,1021.57
2022-12-18T03:23:58.117Z,1021.57
2022-12-18T03:24:58.064Z,1021.57
2022-12-18T03:26:00.807Z,1021.56
2022-12-18T03:26:58.065Z,1021.56
2022-12-18T03:27:58.059Z,1021.54
2022-12-18T03:28:58.046Z,1021.56
2022-12-18T03:29:58.064Z,1021.55
2022-12-18T03:31:04.098Z,1021.54
2022-12-18T03:31:58.039Z,1021.55
2022-12-18T03:33:00.364Z,1021.56
2022-12-18T03:33:58.043Z,1021.56
2022-12-18T03:34:58.030Z,1021.58
2022-12-18T03:35:58.001Z,1021.59
2022-12-18T03:36:57.964Z,1021.59
2022-12-18T03:37:57.973Z,1021.60
2022-12-18T03:38:57.945Z,1021.59
2022-12-18T03:39:57.976Z,1021.57
2022-12-18T03:40:57.930Z,1021.56
2022-12-18T03:41:57.979Z,1021.56
2022-12-18T03:42:57.901Z,1021.58
2022-12-18T03:43:57.921Z,1021.62
2022-12-18T03:44:57.888Z,1021.61
2022-12-18T03:45:58.013Z,1021.61
2022-12-18T03:46:57.889Z,1021.60
2022-12-18T03:47:57.886Z,1021.59
2022-12-18T03:48:57.848Z,1021.58
2022-12-18T03:49:57.888Z,1021.58
2022-12-18T03:50:57.845Z,1021.55
2022-12-18T03:51:57.836Z,1021.53
2022-12-18T03:52:57.834Z,1021.52
2022-12-18T03:53:57.821Z,1021.54
2022-12-18T03:54:57.788Z,1021.53
2022-12-18T03:55:57.822Z,1021.52
2022-12-18T03:56:57.796Z,1021.50
2022-12-18T03:57:57.805Z,1021.51
2022-12-18T03:58:57.750Z,1021.51
2022-12-18T03:59:57.772Z,1021.51
2022-12-18T04:00:57.767Z,1021.51
2022-12-18T04:01:57.833Z,1021.49
2022-12-18T04:02:57.723Z,1021.47
2022-12-18T04:03:57.809Z,1021.46
2022-12-18T04:04:57.693Z,1021.46
2022-12-18T04:05:57.723Z,1021.47
2022-12-18T04:06:57.718Z,1021.47
2022-12-18T04:07:57.703Z,1021.49
2022-12-18T04:08:57.677Z,1021.47
2022-12-18T04:09:57.680Z,1021.45
2022-12-18T04:10:57.642Z,1021.44
2022-12-18T04:11:57.665Z,1021.45
2022-12-18T04:12:57.627Z,1021.46
2022-12-18T04:13:57.636Z,1021.50
2022-12-18T04:14:57.603Z,1021.53
2022-12-18T04:15:57.668Z,1021.54
2022-12-18T04:16:57.627Z,1021.54
2022-12-18T04:17:57.588Z,1021.53
2022-12-18T04:18:57.594Z,1021.51
2022-12-18T04:19:57.577Z,1021.50
2022-12-18T04:20:57.543Z,1021.50
2022-12-18T04:21:57.568Z,1021.50
2022-12-18T04:22:57.548Z,1021.51
2022-12-18T04:23:57.537Z,1021.52
2022-12-18T04:24:57.517Z,1021.54
2022-12-18T04:25:57.525Z,1021.56
2022-12-18T04:26:57.500Z,1021.58
2022-12-18T04:27:57.511Z,1021.58
2022-12-18T04:28:57.537Z,1021.59
2022-12-18T04:29:57.481Z,1021.60
2022-12-18T04:30:57.501Z,1021.60
2022-12-18T04:31:57.478Z,1021.61
2022-12-18T04:32:57.429Z,1021.58
2022-12-18T04:33:57.446Z,1021.59
2022-12-18T04:34:57.443Z,1021.57
2022-12-18T04:35:57.423Z,1021.56
2022-12-18T04:36:57.401Z,1021.56
2022-12-18T04:37:57.425Z,1021.56
2022-12-18T04:38:57.376Z,1021.55
2022-12-18T04:39:57.405Z,1021.55
2022-12-18T04:40:57.387Z,1021.56
2022-12-18T04:41:57.406Z,1021.56
2022-12-18T04:42:57.385Z,1021.57
2022-12-18T04:43:57.351Z,1021.55
2022-12-18T04:44:57.318Z,1021.54
2022-12-18T04:45:57.335Z,1021.54
2022-12-18T04:46:57.344Z,1021.54
2022-12-18T04:47:57.316Z,1021.56
2022-12-18T04:48:57.334Z,1021.56
2022-12-18T04:49:57.412Z,1021.55
2022-12-18T04:50:57.291Z,1021.55
2022-12-18T04:51:57.252Z,1021.55
2022-12-18T04:52:57.295Z,1021.55
2022-12-18T04:53:57.238Z,1021.53
2022-12-18T04:54:57.274Z,1021.54
2022-12-18T04:55:57.240Z,1021.56
2022-12-18T04:56:57.243Z,1021.56
2022-12-18T04:57:57.191Z,1021.58
2022-12-18T04:58:57.264Z,1021.61
2022-12-18T04:59:57.199Z,1021.62
2022-12-18T05:00:57.200Z,1021.62
2022-12-18T05:01:57.319Z,1021.62
2022-12-18T05:02:57.344Z,1021.62
2022-12-18T05:03:57.212Z,1021.59
2022-12-18T05:04:57.167Z,1021.58
2022-12-18T05:05:57.166Z,1021.54
2022-12-18T05:06:57.127Z,1021.51
2022-12-18T05:07:57.155Z,1021.49
2022-12-18T05:08:57.121Z,1021.46
2022-12-18T05:09:57.107Z,1021.47
2022-12-18T05:10:57.087Z,1021.47
2022-12-18T05:11:57.102Z,1021.48
2022-12-18T05:12:57.062Z,1021.47
2022-12-18T05:13:57.080Z,1021.47
2022-12-18T05:14:57.041Z,1021.47
2022-12-18T05:15:57.098Z,1021.46
2022-12-18T05:17:00.796Z,1021.46
2022-12-18T05:17:57.043Z,1021.46
2022-12-18T05:18:57.026Z,1021.48
2022-12-18T05:19:57.013Z,1021.49
2022-12-18T05:20:57.000Z,1021.50
2022-12-18T05:21:56.998Z,1021.48
2022-12-18T05:22:57.025Z,1021.47
2022-12-18T05:23:57.022Z,1021.48
2022-12-18T05:24:56.945Z,1021.47
2022-12-18T05:25:56.967Z,1021.46
2022-12-18T05:26:56.929Z,1021.45
2022-12-18T05:27:56.956Z,1021.42
2022-12-18T05:28:56.929Z,1021.40
2022-12-18T05:29:56.950Z,1021.35
2022-12-18T05:30:56.978Z,1021.31
2022-12-18T05:31:56.946Z,1021.30
2022-12-18T05:32:56.880Z,1021.29
2022-12-18T05:33:56.908Z,1021.29
2022-12-18T05:34:56.900Z,1021.27
2022-12-18T05:35:56.880Z,1021.26
2022-12-18T05:36:56.850Z,1021.25
2022-12-18T05:37:56.862Z,1021.24
2022-12-18T05:38:56.810Z,1021.21
2022-12-18T05:39:56.831Z,1021.20
2022-12-18T05:40:57.057Z,1021.20
2022-12-18T05:41:56.822Z,1021.20
2022-12-18T05:42:56.779Z,1021.20
2022-12-18T05:43:56.789Z,1021.23
2022-12-18T05:44:56.773Z,1021.24
2022-12-18T05:45:56.787Z,1021.24
2022-12-18T05:46:56.866Z,1021.26
2022-12-18T05:47:56.759Z,1021.28
2022-12-18T05:48:56.717Z,1021.29
2022-12-18T05:49:56.737Z,1021.30
2022-12-18T05:50:56.706Z,1021.32
2022-12-18T05:51:56.713Z,1021.32
2022-12-18T05:52:56.710Z,1021.36
2022-12-18T05:53:56.697Z,1021.37
2022-12-18T05:54:56.674Z,1021.38
2022-12-18T05:55:56.668Z,1021.39
2022-12-18T05:56:56.654Z,1021.39
2022-12-18T05:57:56.657Z,1021.38
2022-12-18T05:58:56.676Z,1021.39
2022-12-18T05:59:56.638Z,1021.38
2022-12-18T06:00:56.610Z,1021.37
2022-12-18T06:01:56.767Z,1021.35
2022-12-18T06:02:56.739Z,1021.32
2022-12-18T06:03:56.713Z,1021.33
2022-12-18T06:04:56.594Z,1021.34
2022-12-18T06:05:56.589Z,1021.35
2022-12-18T06:06:56.579Z,1021.36
2022-12-18T06:07:56.600Z,1021.37
2022-12-18T06:08:56.561Z,1021.39
2022-12-18T06:09:56.559Z,1021.40
2022-12-18T06:10:56.532Z,1021.39
2022-12-18T06:11:56.536Z,1021.39
2022-12-18T06:12:56.507Z,1021.41
2022-12-18T06:13:59.139Z,1021.40
2022-12-18T06:14:56.490Z,1021.42
2022-12-18T06:15:56.517Z,1021.42
2022-12-18T06:16:56.486Z,1021.42
2022-12-18T06:17:56.479Z,1021.45
2022-12-18T06:18:56.451Z,1021.45
2022-12-18T06:19:56.466Z,1021.47
2022-12-18T06:20:56.421Z,1021.52
2022-12-18T06:21:56.451Z,1021.52
2022-12-18T06:22:56.415Z,1021.53
2022-12-18T06:23:56.441Z,1021.56
2022-12-18T06:24:56.379Z,1021.57
2022-12-18T06:25:56.413Z,1021.59
2022-12-18T06:26:56.373Z,1021.60
2022-12-18T06:27:56.429Z,1021.63
2022-12-18T06:28:56.391Z,1021.62
2022-12-18T06:29:56.369Z,1021.63
2022-12-18T06:30:56.327Z,1021.62
2022-12-18T06:31:56.412Z,1021.60
2022-12-18T06:32:57.020Z,1021.61
2022-12-18T06:33:56.327Z,1021.60
2022-12-18T06:34:56.338Z,1021.61
2022-12-18T06:36:00.870Z,1021.65
2022-12-18T06:36:56.269Z,1021.62
2022-12-18T06:37:56.281Z,1021.66
2022-12-18T06:38:56.258Z,1021.68
2022-12-18T06:39:56.261Z,1021.70
2022-12-18T06:40:56.265Z,1021.72
2022-12-18T06:41:56.241Z,1021.71
2022-12-18T06:42:56.268Z,1021.71
2022-12-18T06:43:59.763Z,1021.72
2022-12-18T06:44:56.195Z,1021.72
2022-12-18T06:45:56.270Z,1021.72
2022-12-18T06:46:56.213Z,1021.74
2022-12-18T06:47:56.192Z,1021.72
2022-12-18T06:48:56.163Z,1021.71
2022-12-18T06:49:56.188Z,1021.68
2022-12-18T06:50:56.152Z,1021.66
2022-12-18T06:51:56.182Z,1021.66
2022-12-18T06:52:56.168Z,1021.66
2022-12-18T06:53:56.173Z,1021.66
2022-12-18T06:54:56.096Z,1021.68
2022-12-18T06:55:56.109Z,1021.66
2022-12-18T06:56:56.114Z,1021.68
2022-12-18T06:57:56.103Z,1021.69
2022-12-18T06:58:56.087Z,1021.69
2022-12-18T06:59:56.075Z,1021.67
2022-12-18T07:00:56.094Z,1021.64
2022-12-18T07:01:56.268Z,1021.63
2022-12-18T07:02:56.181Z,1021.60
2022-12-18T07:03:56.048Z,1021.57
2022-12-18T07:04:56.032Z,1021.58
2022-12-18T07:05:56.018Z,1021.59
2022-12-18T07:06:55.984Z,1021.59
2022-12-18T07:07:55.995Z,1021.59
2022-12-18T07:08:56.019Z,1021.57
2022-12-18T07:09:56.008Z,1021.56
2022-12-18T07:10:56.549Z,1021.57
2022-12-18T07:11:55.956Z,1021.56
2022-12-18T07:12:55.982Z,1021.58
2022-12-18T07:13:55.963Z,1021.58
2022-12-18T07:14:55.918Z,1021.59
2022-12-18T07:15:56.011Z,1021.60
2022-12-18T07:16:55.977Z,1021.60
2022-12-18T07:17:55.905Z,1021.59
2022-12-18T07:18:55.875Z,1021.58
2022-12-18T07:19:55.896Z,1021.56
2022-12-18T07:20:55.863Z,1021.56
2022-12-18T07:21:55.884Z,1021.55
2022-12-18T07:22:56.488Z,1021.55
2022-12-18T07:23:56.085Z,1021.53
2022-12-18T07:24:55.837Z,1021.50
2022-12-18T07:25:55.856Z,1021.49
2022-12-18T07:26:55.807Z,1021.49
2022-12-18T07:27:55.813Z,1021.48
2022-12-18T07:28:55.809Z,1021.49
2022-12-18T07:29:55.797Z,1021.48
2022-12-18T07:30:55.765Z,1021.46
2022-12-18T07:31:55.914Z,1021.45
2022-12-18T07:32:55.763Z,1021.47
2022-12-18T07:33:55.761Z,1021.49
2022-12-18T07:34:55.754Z,1021.52
2022-12-18T07:35:55.735Z,1021.54
2022-12-18T07:36:55.710Z,1021.57
2022-12-18T07:37:55.727Z,1021.60
2022-12-18T07:38:55.694Z,1021.60
2022-12-18T07:39:55.742Z,1021.60
2022-12-18T07:40:55.690Z,1021.58
2022-12-18T07:41:55.683Z,1021.60
2022-12-18T07:42:55.675Z,1021.60
2022-12-18T07:43:55.673Z,1021.59
2022-12-18T07:44:55.644Z,1021.61
2022-12-18T07:45:55.707Z,1021.61
2022-12-18T07:46:55.608Z,1021.62
2022-12-18T07:47:55.621Z,1021.61
2022-12-18T07:48:55.645Z,1021.62
2022-12-18T07:49:55.643Z,1021.61
2022-12-18T07:50:55.580Z,1021.60
2022-12-18T07:51:56.336Z,1021.59
2022-12-18T07:52:55.550Z,1021.56
2022-12-18T07:53:55.571Z,1021.58
2022-12-18T07:54:55.552Z,1021.57
2022-12-18T07:56:25.350Z,1021.55
2022-12-18T07:56:55.522Z,1021.55
2022-12-18T07:58:00.829Z,1021.53
2022-12-18T07:58:55.524Z,1021.51
2022-12-18T07:59:55.511Z,1021.50
2022-12-18T08:00:55.526Z,1021.49
2022-12-18T08:01:55.651Z,1021.45
2022-12-18T08:03:01.984Z,1021.44
2022-12-18T08:03:55.475Z,1021.42
2022-12-18T08:04:55.433Z,1021.39
2022-12-18T08:05:55.471Z,1021.37
2022-12-18T08:06:55.412Z,1021.36
2022-12-18T08:07:55.432Z,1021.36
2022-12-18T08:08:55.487Z,1021.37
2022-12-18T08:09:55.412Z,1021.40
2022-12-18T08:10:55.400Z,1021.42
2022-12-18T08:11:55.455Z,1021.43
2022-12-18T08:12:57.837Z,1021.43
2022-12-18T08:13:55.377Z,1021.44
2022-12-18T08:14:55.347Z,1021.45
2022-12-18T08:15:55.353Z,1021.44
2022-12-18T08:16:55.408Z,1021.41
2022-12-18T08:17:55.338Z,1021.40
2022-12-18T08:18:55.309Z,1021.39
2022-12-18T08:19:55.313Z,1021.39
2022-12-18T08:20:55.312Z,1021.39
2022-12-18T08:21:55.312Z,1021.39
2022-12-18T08:22:55.269Z,1021.38
2022-12-18T08:23:55.286Z,1021.35
2022-12-18T08:24:55.252Z,1021.35
2022-12-18T08:25:55.267Z,1021.31
2022-12-18T08:27:20.727Z,1021.33
2022-12-18T08:27:55.264Z,1021.31
2022-12-18T08:28:55.204Z,1021.32
2022-12-18T08:29:55.237Z,1021.34
2022-12-18T08:30:55.206Z,1021.32
2022-12-18T08:31:55.257Z,1021.35
2022-12-18T08:32:55.205Z,1021.34
2022-12-18T08:33:55.368Z,1021.32
2022-12-18T08:34:55.153Z,1021.34
2022-12-18T08:35:55.188Z,1021.31
2022-12-18T08:36:55.148Z,1021.29
2022-12-18T08:37:55.171Z,1021.28
2022-12-18T08:38:55.113Z,1021.23
2022-12-18T08:39:55.136Z,1021.24
2022-12-18T08:40:55.091Z,1021.20
2022-12-18T08:41:55.104Z,1021.20
2022-12-18T08:42:55.076Z,1021.20
2022-12-18T08:43:55.106Z,1021.18
2022-12-18T08:44:55.059Z,1021.17
2022-12-18T08:45:55.119Z,1021.17
2022-12-18T08:46:55.032Z,1021.11
2022-12-18T08:47:55.088Z,1021.08
2022-12-18T08:48:55.030Z,1021.07
2022-12-18T08:49:55.030Z,1021.04
2022-12-18T08:50:55.001Z,1021.01
2022-12-18T08:51:55.035Z,1020.98
2022-12-18T08:52:54.976Z,1020.95
2022-12-18T08:53:55.014Z,1020.95
2022-12-18T08:54:54.991Z,1020.89
2022-12-18T08:55:54.968Z,1020.88
2022-12-18T08:56:54.936Z,1020.81
2022-12-18T08:57:54.967Z,1020.81
2022-12-18T08:58:54.917Z,1020.79
2022-12-18T08:59:54.943Z,1020.78
2022-12-18T09:00:54.947Z,1020.72
2022-12-18T09:01:55.058Z,1020.71
2022-12-18T09:02:55.061Z,1020.71
2022-12-18T09:03:54.894Z,1020.73
2022-12-18T09:04:57.594Z,1020.75
2022-12-18T09:05:54.872Z,1020.75
2022-12-18T09:06:54.865Z,1020.75
2022-12-18T09:07:54.872Z,1020.72
2022-12-18T09:08:54.825Z,1020.73
2022-12-18T09:09:54.854Z,1020.72
2022-12-18T09:10:54.848Z,1020.73
2022-12-18T09:11:54.817Z,1020.77
2022-12-18T09:12:54.783Z,1020.79
2022-12-18T09:13:54.857Z,1020.81
2022-12-18T09:14:54.825Z,1020.82
2022-12-18T09:15:54.766Z,1020.84
2022-12-18T09:16:54.854Z,1020.84
2022-12-18T09:17:54.745Z,1020.84
2022-12-18T09:18:54.750Z,1020.86
2022-12-18T09:19:54.715Z,1020.88
2022-12-18T09:20:54.745Z,1020.89
2022-12-18T09:21:54.699Z,1020.90
2022-12-18T09:22:54.713Z,1020.91
2022-12-18T09:23:54.700Z,1020.88
2022-12-18T09:24:54.693Z,1020.87
2022-12-18T09:25:54.681Z,1020.83
2022-12-18T09:26:57.606Z,1020.80
2022-12-18T09:27:54.639Z,1020.76
2022-12-18T09:28:54.656Z,1020.75
2022-12-18T09:29:54.618Z,1020.72
2022-12-18T09:30:54.672Z,1020.72
2022-12-18T09:31:54.617Z,1020.72
2022-12-18T09:32:54.616Z,1020.73
2022-12-18T09:33:54.579Z,1020.76
2022-12-18T09:34:54.600Z,1020.77
2022-12-18T09:35:54.568Z,1020.79
2022-12-18T09:36:54.600Z,1020.80
2022-12-18T09:37:54.583Z,1020.82
2022-12-18T09:38:54.565Z,1020.84
2022-12-18T09:39:54.535Z,1020.85
2022-12-18T09:40:54.537Z,1020.88
2022-12-18T09:41:54.628Z,1020.91
2022-12-18T09:42:54.549Z,1020.93
2022-12-18T09:43:54.502Z,1020.91
2022-12-18T09:44:54.552Z,1020.91
2022-12-18T09:45:54.511Z,1020.94
2022-12-18T09:46:54.478Z,1020.91
2022-12-18T09:47:54.455Z,1020.91
2022-12-18T09:48:54.471Z,1020.95
2022-12-18T09:49:54.440Z,1020.96
2022-12-18T09:50:54.503Z,1020.95
2022-12-18T09:51:54.414Z,1020.96
2022-12-18T09:52:54.436Z,1020.96
2022-12-18T09:53:54.389Z,1020.97
2022-12-18T09:54:54.403Z,1020.93
2022-12-18T09:55:54.367Z,1020.95
2022-12-18T09:56:54.400Z,1020.94
2022-12-18T09:57:54.392Z,1020.96
2022-12-18T09:58:54.361Z,1020.95
2022-12-18T09:59:54.326Z,1020.92
2022-12-18T10:00:54.346Z,1020.87
2022-12-18T10:01:54.495Z,1020.82
2022-12-18T10:02:54.490Z,1020.81
2022-12-18T10:03:54.383Z,1020.79
2022-12-18T10:04:54.368Z,1020.79
2022-12-18T10:05:54.288Z,1020.76
2022-12-18T10:06:54.300Z,1020.73
2022-12-18T10:07:54.253Z,1020.73
2022-12-18T10:08:54.289Z,1020.73
2022-12-18T10:09:54.233Z,1020.70
2022-12-18T10:10:54.246Z,1020.66
2022-12-18T10:11:54.223Z,1020.62
2022-12-18T10:12:55.622Z,1020.60
2022-12-18T10:13:54.206Z,1020.59
2022-12-18T10:14:54.218Z,1020.56
2022-12-18T10:15:54.185Z,1020.51
2022-12-18T10:16:54.185Z,1020.50
2022-12-18T10:17:54.160Z,1020.47
2022-12-18T10:18:54.189Z,1020.50
2022-12-18T10:19:54.136Z,1020.52
2022-12-18T10:20:54.179Z,1020.55
2022-12-18T10:21:54.117Z,1020.54
2022-12-18T10:22:54.133Z,1020.49
2022-12-18T10:23:54.093Z,1020.43
2022-12-18T10:24:54.126Z,1020.42
2022-12-18T10:25:54.076Z,1020.40
2022-12-18T10:26:54.089Z,1020.39
2022-12-18T10:27:54.056Z,1020.38
2022-12-18T10:28:54.075Z,1020.43
2022-12-18T10:29:54.064Z,1020.43
2022-12-18T10:30:54.080Z,1020.42
2022-12-18T10:31:54.013Z,1020.40
2022-12-18T10:32:54.038Z,1020.33
2022-12-18T10:33:53.996Z,1020.27
2022-12-18T10:35:00.157Z,1020.26
2022-12-18T10:35:53.985Z,1020.25
2022-12-18T10:36:53.993Z,1020.25
2022-12-18T10:37:53.972Z,1020.20
2022-12-18T10:38:53.971Z,1020.17
2022-12-18T10:39:53.952Z,1020.15
2022-12-18T10:40:53.973Z,1020.11
2022-12-18T10:41:53.918Z,1020.08
2022-12-18T10:42:53.968Z,1020.07
2022-12-18T10:43:53.899Z,1020.02
2022-12-18T10:44:53.950Z,1019.97
2022-12-18T10:45:53.941Z,1019.95
2022-12-18T10:46:53.987Z,1019.92
2022-12-18T10:47:53.857Z,1019.91
2022-12-18T10:48:53.930Z,1019.86
2022-12-18T10:49:53.844Z,1019.86
2022-12-18T10:51:12.406Z,1019.83
2022-12-18T10:51:53.860Z,1019.84
2022-12-18T10:52:53.868Z,1019.82
2022-12-18T10:53:53.801Z,1019.80
2022-12-18T10:54:53.810Z,1019.74
2022-12-18T10:55:53.789Z,1019.71
2022-12-18T10:56:53.809Z,1019.72
2022-12-18T10:57:53.773Z,1019.75
2022-12-18T10:58:53.778Z,1019.73
2022-12-18T10:59:53.749Z,1019.69
2022-12-18T11:00:53.769Z,1019.71
2022-12-18T11:01:54.002Z,1019.70
2022-12-18T11:02:53.950Z,1019.74
2022-12-18T11:03:57.699Z,1019.77
2022-12-18T11:04:53.724Z,1019.75
2022-12-18T11:05:53.697Z,1019.76
2022-12-18T11:06:53.708Z,1019.74
2022-12-18T11:07:53.673Z,1019.76
2022-12-18T11:08:53.676Z,1019.76
2022-12-18T11:09:53.654Z,1019.75
2022-12-18T11:10:53.657Z,1019.75
2022-12-18T11:11:53.653Z,1019.71
2022-12-18T11:12:55.411Z,1019.72
2022-12-18T11:13:53.600Z,1019.72
2022-12-18T11:14:53.619Z,1019.70
2022-12-18T11:15:53.645Z,1019.65
2022-12-18T11:17:53.598Z,1019.55
2022-12-18T11:18:53.575Z,1019.52
2022-12-18T11:19:53.550Z,1019.48
2022-12-18T11:20:58.300Z,1019.42
2022-12-18T11:21:53.526Z,1019.42
2022-12-18T11:22:53.578Z,1019.36
2022-12-18T11:23:53.516Z,1019.30
2022-12-18T11:25:29.690Z,1019.28
2022-12-18T11:25:53.490Z,1019.25
2022-12-18T11:26:59.354Z,1019.21
2022-12-18T11:27:53.473Z,1019.23
2022-12-18T11:28:53.509Z,1019.27
2022-12-18T11:29:53.444Z,1019.25
2022-12-18T11:30:53.507Z,1019.22
2022-12-18T11:31:53.438Z,1019.18
2022-12-18T11:32:53.444Z,1019.15
2022-12-18T11:34:26.998Z,1019.17
2022-12-18T11:34:58.795Z,1019.14
2022-12-18T11:35:53.388Z,1019.11
2022-12-18T11:36:53.400Z,1019.11
2022-12-18T11:37:53.366Z,1019.08
2022-12-18T11:38:53.404Z,1019.10
2022-12-18T11:39:53.346Z,1019.12
2022-12-18T11:40:53.353Z,1019.08
2022-12-18T11:41:53.321Z,1019.08
2022-12-18T11:42:53.344Z,1019.05
2022-12-18T11:43:53.301Z,1019.05
2022-12-18T11:44:53.324Z,1019.08
2022-12-18T11:45:53.280Z,1019.08
2022-12-18T11:46:53.318Z,1019.04
2022-12-18T11:47:53.262Z,1019.05
2022-12-18T11:48:53.283Z,1019.04
2022-12-18T11:49:53.268Z,1019.00
2022-12-18T11:50:54.811Z,1018.98
2022-12-18T11:51:53.234Z,1018.98
2022-12-18T11:52:58.215Z,1018.98
2022-12-18T11:53:53.231Z,1018.98
2022-12-18T11:54:53.332Z,1018.96
2022-12-18T11:55:53.192Z,1018.95
2022-12-18T11:56:53.191Z,1018.93
2022-12-18T11:57:53.161Z,1018.92
2022-12-18T11:58:53.182Z,1018.91
2022-12-18T11:59:53.167Z,1018.91
2022-12-18T12:00:53.158Z,1018.86
2022-12-18T12:01:53.228Z,1018.85
2022-12-18T12:02:53.233Z,1018.83
2022-12-18T12:03:53.134Z,1018.79
2022-12-18T12:04:53.118Z,1018.71
2022-12-18T12:05:53.096Z,1018.68
2022-12-18T12:06:53.095Z,1018.68